Date,TemperatureHighF,TemperatureAvgF,TemperatureLowF,DewpointHighF,DewpointAvgF,DewpointLowF,HumidityHigh,HumidityAvg,HumidityLow,PressureMaxIn,PressureMinIn,WindSpeedMaxMPH,WindSpeedAvgMPH,GustSpeedMaxMPH,PrecipitationSumIn
2013-1-1,29.7,25.6,22.4,19.1,15.6,11.3,74,66,58,30.13,30.03,11,6,15,0.00
2013-1-2,27.8,22.8,16.4,18.2,12.5,4.7,72,64,54,30.17,30.10,10,5,13,0.00
2013-1-3,32.1,27.4,15.9,25.5,19.6,5.5,81,72,62,30.19,30.06,13,6,18,0.00
2013-1-4,36.2,29.9,23.2,25.7,21.4,16.0,80,71,57,30.19,30.09,16,10,25,0.00
2013-1-5,35.6,31.1,21.4,31.4,24.9,16.5,91,78,63,30.22,29.93,11,5,14,0.03
2013-1-6,36.9,34.3,31.0,32.1,27.2,22.6,84,75,61,30.28,29.86,17,9,23,0.00
2013-1-7,36.2,29.5,20.2,25.1,20.5,15.9,84,70,50,30.33,30.10,12,5,18,0.00
2013-1-8,39.9,33.1,26.0,29.1,24.2,21.0,81,70,57,30.17,30.02,10,4,15,0.00
2013-1-9,45.7,41.4,32.2,33.7,30.6,25.7,78,66,51,30.45,29.99,14,9,19,0.01
2013-1-10,41.2,33.2,26.0,37.5,27.7,22.7,92,81,54,30.49,29.92,11,4,17,0.18
2013-1-11,54.5,49.5,39.6,50.9,45.5,37.5,94,86,76,29.91,29.65,13,7,20,0.32
2013-1-12,55.7,48.1,36.9,46.6,40.6,33.0,86,75,69,29.92,29.70,13,6,20,0.07
2013-1-13,36.9,31.1,21.9,34.2,27.1,15.2,93,85,73,30.17,29.78,13,7,18,0.09
2013-1-14,24.8,22.5,18.8,16.1,14.6,13.4,79,72,64,30.42,30.17,12,4,16,0.00
2013-1-15,30.4,24.8,16.4,18.3,15.9,10.9,82,69,57,30.40,30.08,6,1,9,0.00
2013-1-16,37.0,29.3,19.4,30.1,20.6,13.9,84,71,48,30.08,29.81,15,7,25,0.00
2013-1-17,37.5,30.2,24.8,30.3,17.9,10.4,76,60,49,30.34,30.00,18,12,23,0.00
2013-1-18,41.8,33.0,25.1,27.4,19.6,12.2,72,58,49,30.38,29.89,12,8,23,0.00
2013-1-19,47.4,42.7,32.9,35.6,30.0,16.7,74,61,46,29.89,29.66,24,10,33,0.00
2013-1-20,32.2,20.0,17.0,16.3,8.4,4.5,72,61,48,30.24,29.78,24,13,34,0.00
2013-1-21,19.5,13.4,8.4,9.1,3.9,-2.8,76,66,55,30.19,30.05,18,12,25,0.00
2013-1-22,13.8,9.5,6.7,6.7,0.6,-5.2,76,67,56,30.33,30.19,17,11,26,0.00
2013-1-23,21.3,16.4,13.6,18.3,9.0,1.7,88,72,56,30.29,30.05,19,8,25,0.00
2013-1-24,18.0,14.5,9.2,11.4,4.1,-1.0,85,64,44,30.61,30.21,17,2,26,0.00
2013-1-25,28.2,21.5,15.9,21.8,13.6,3.0,83,72,56,30.39,29.96,15,6,20,0.00
2013-1-26,27.0,25.6,22.2,19.8,16.3,13.2,77,68,60,30.40,30.07,15,6,19,0.00
2013-1-27,36.5,27.8,22.2,33.8,20.7,14.8,90,75,64,30.38,29.93,11,5,15,0.09
2013-1-28,49.5,41.6,36.0,48.1,39.9,33.4,96,94,90,29.94,29.79,13,5,19,0.41
2013-1-29,59.5,55.4,38.9,57.2,53.0,37.2,97,92,84,29.84,29.33,14,7,22,0.46
2013-1-30,50.4,38.7,24.8,49.6,36.6,18.2,97,92,73,29.49,29.08,19,8,31,0.64
2013-1-31,24.5,18.5,14.3,18.6,10.9,6.2,83,72,61,30.02,29.50,19,12,30,0.00
2013-2-1,18.0,12.3,9.9,13.2,5.2,1.7,81,73,63,30.31,30.03,16,8,25,0.00
2013-2-2,24.8,18.4,14.8,22.5,15.0,10.1,91,86,80,30.17,29.95,12,3,13,0.00
2013-2-3,23.6,20.0,14.9,16.1,12.9,10.7,87,74,60,30.01,29.90,16,8,21,0.00
2013-2-4,27.0,22.9,19.2,20.4,18.1,14.3,88,82,74,30.01,29.83,8,2,10,0.01
2013-2-5,30.7,24.9,15.7,27.2,20.0,11.7,93,82,65,30.02,29.77,13,6,17,0.00
2013-2-6,34.0,30.0,25.3,23.6,18.9,15.5,73,63,54,30.23,30.02,12,4,14,0.08
2013-2-7,39.6,32.8,29.1,31.6,27.1,22.8,94,80,64,30.14,29.79,7,3,11,0.25
2013-2-8,33.1,31.0,27.2,31.6,24.4,19.0,94,77,65,30.34,29.81,12,7,18,0.07
2013-2-9,35.8,28.0,17.7,23.4,19.7,14.0,86,71,58,30.39,30.10,9,4,17,0.01
2013-2-10,49.9,38.2,29.3,44.8,31.2,20.0,91,76,67,30.09,29.49,14,6,21,0.13
2013-2-11,49.9,35.4,30.3,43.3,25.9,20.3,79,68,62,29.96,29.48,19,14,31,0.00
2013-2-12,30.3,28.7,27.2,22.7,21.2,19.3,78,73,69,30.06,29.91,11,6,17,0.00
2013-2-13,42.9,33.2,22.7,31.4,25.6,19.1,89,74,57,29.91,29.68,6,3,12,0.00
2013-2-14,40.1,36.3,33.4,31.9,28.7,23.0,85,74,63,29.90,29.62,16,9,27,0.00
2013-2-15,34.0,27.6,25.3,27.3,17.5,10.0,90,66,48,30.14,29.90,15,8,18,0.00
2013-2-16,26.3,20.2,17.0,16.1,9.9,4.1,82,64,51,30.11,30.05,16,10,23,0.00
2013-2-17,27.9,21.4,16.4,16.4,11.5,6.8,83,67,47,30.19,30.07,6,2,12,0.01
2013-2-18,52.0,39.4,24.1,43.6,28.0,11.3,89,64,52,30.06,29.37,16,9,27,0.15
2013-2-19,37.3,21.0,16.9,34.6,14.8,8.5,90,77,68,30.08,29.43,17,12,25,0.12
2013-2-20,26.3,20.8,17.0,17.6,13.5,9.0,80,73,66,30.31,30.07,17,12,23,0.00
2013-2-21,26.6,24.3,21.6,18.5,16.2,14.2,75,71,66,30.35,30.03,15,5,22,0.00
2013-2-22,33.7,27.9,21.8,31.6,23.5,14.6,93,84,69,30.06,29.80,12,7,19,0.00
2013-2-23,30.0,27.8,26.6,24.0,19.8,17.0,79,72,65,29.92,29.85,12,8,19,0.00
2013-2-24,33.5,29.3,24.4,25.2,22.6,19.0,87,76,68,30.13,29.91,9,4,13,0.00
2013-2-25,40.9,31.3,18.6,23.8,21.2,15.6,89,68,46,30.18,29.98,6,2,10,0.00
2013-2-26,36.2,32.9,31.2,31.6,26.4,20.7,94,78,55,29.97,29.43,17,6,27,0.28
2013-2-27,35.0,33.9,32.9,33.7,32.5,31.4,95,95,92,29.59,29.43,6,2,9,0.50
2013-2-28,36.5,34.0,31.2,33.0,29.1,24.2,95,82,75,29.96,29.59,14,8,19,0.03
2013-3-1,32.2,29.5,25.7,24.3,21.1,16.5,78,71,65,30.12,29.96,12,4,17,0.00
2013-3-2,29.5,27.1,22.7,22.0,17.6,12.3,74,67,60,30.12,30.07,13,5,18,0.00
2013-3-3,30.4,26.5,23.0,18.2,14.9,9.5,72,62,44,30.09,30.04,14,5,18,0.00
2013-3-4,35.0,28.4,18.0,18.8,15.3,10.1,82,59,36,30.13,30.01,7,3,11,0.00
2013-3-5,32.1,29.7,27.2,27.2,23.1,18.7,93,78,59,30.00,29.77,13,5,19,0.00
2013-3-6,34.9,31.7,27.0,30.9,27.7,24.5,91,85,74,30.23,29.90,11,6,15,0.26
2013-3-7,35.3,32.1,24.8,30.5,26.9,21.2,91,81,68,30.41,30.22,9,4,12,0.01
2013-3-8,40.8,30.3,18.1,22.6,20.0,15.1,89,67,45,30.48,30.33,5,1,8,0.00
2013-3-9,44.9,42.4,29.5,32.2,31.5,20.2,70,65,60,30.32,29.85,8,6,13,0.00
2013-3-10,57.8,49.8,40.9,47.0,40.0,31.9,91,70,55,29.84,29.61,13,5,26,0.38
2013-3-11,51.9,42.5,33.8,48.6,39.8,30.0,95,90,84,29.72,29.48,12,7,28,0.19
2013-3-12,35.9,32.6,28.1,30.6,26.6,22.0,91,79,61,29.92,29.72,15,8,20,0.01
2013-3-13,30.6,28.2,25.1,23.7,16.8,10.8,87,63,44,30.27,29.92,18,14,26,0.00
2013-3-14,36.9,32.5,29.8,28.9,20.3,13.7,85,61,41,30.27,30.08,11,5,14,0.00
2013-3-15,37.6,34.7,30.4,34.2,30.8,27.3,92,86,76,30.08,29.71,8,4,11,0.05
2013-3-16,36.0,32.2,29.4,33.9,26.9,19.8,92,81,65,30.08,29.65,11,5,16,0.01
2013-3-17,36.2,31.5,28.1,23.3,18.4,15.4,71,58,47,30.19,30.02,13,6,19,0.00
2013-3-18,34.7,30.7,25.7,32.3,25.6,14.8,93,81,63,30.02,29.55,16,8,26,0.05
2013-3-19,32.4,26.3,20.8,18.1,14.5,12.2,71,61,48,30.00,29.72,14,12,27,0.00
2013-3-20,28.8,21.7,18.1,15.9,10.7,7.3,78,62,55,30.02,29.96,14,11,21,0.00
2013-3-21,29.3,25.5,20.3,17.8,15.6,9.3,82,66,58,30.01,29.91,16,10,24,0.00
2013-3-22,32.2,29.1,23.9,21.4,17.8,15.0,81,63,51,30.05,29.99,11,5,14,0.00
2013-3-23,35.3,29.2,22.2,24.0,21.5,18.4,87,73,57,30.11,29.99,10,3,13,0.00
2013-3-24,37.9,32.3,26.9,24.5,21.9,19.6,77,66,51,30.00,29.59,11,4,17,0.00
2013-3-25,35.9,33.4,30.7,29.0,25.5,20.4,79,73,64,29.98,29.60,14,8,19,0.00
2013-3-26,35.9,34.6,31.9,30.5,29.1,27.0,90,80,71,30.18,29.98,13,7,17,0.00
2013-3-27,40.1,36.4,33.4,32.0,28.7,22.7,88,74,50,30.26,30.18,13,5,16,0.00
2013-3-28,43.1,36.5,29.4,30.7,27.4,20.2,82,70,40,30.30,30.25,9,3,12,0.00
2013-3-29,45.1,35.5,24.2,29.6,22.1,14.9,87,62,30,30.30,30.20,9,2,12,0.00
2013-3-30,57.5,42.8,23.3,35.2,26.2,19.2,85,56,32,30.21,29.80,9,3,14,0.00
2013-3-31,52.6,44.6,36.2,42.3,36.4,29.5,95,74,53,29.80,29.63,18,7,20,0.01
2013-4-1,37.2,31.9,27.3,31.3,17.2,11.4,79,55,42,30.11,29.79,17,9,21,0.00
2013-4-2,36.0,32.4,25.0,21.5,16.5,12.6,69,52,40,30.27,30.11,15,8,21,0.00
2013-4-3,37.0,30.6,22.7,23.1,17.3,13.4,80,59,38,30.43,30.27,12,4,18,0.00
2013-4-4,52.9,40.9,25.6,32.2,17.7,14.8,73,43,23,30.30,29.90,10,4,15,0.00
2013-4-5,45.2,37.4,32.9,33.2,26.9,20.5,82,66,44,30.17,29.92,16,6,22,0.00
2013-4-6,67.3,51.5,33.4,40.5,29.4,22.6,77,45,29,30.12,29.55,18,10,27,0.00
2013-4-7,64.5,46.0,40.6,45.8,36.2,30.9,86,69,38,29.94,29.54,17,7,23,0.02
2013-4-8,63.9,45.0,39.6,54.9,38.4,31.2,93,78,62,29.94,29.59,17,6,27,0.19
2013-4-9,72.0,50.2,40.3,57.6,44.8,38.4,94,83,60,29.97,29.75,10,4,15,0.02
2013-4-10,49.5,43.5,38.9,46.4,40.5,36.2,93,89,84,29.91,29.75,17,5,19,0.41
2013-4-11,43.9,42.1,40.3,41.6,39.7,37.6,93,91,87,29.83,29.53,17,9,24,1.30
2013-4-12,43.3,39.8,37.5,39.6,35.2,30.0,96,84,71,29.79,29.53,14,8,22,0.06
2013-4-13,41.2,38.5,33.5,32.4,29.3,26.7,81,70,57,29.97,29.79,12,6,18,0.00
2013-4-14,60.5,37.2,32.5,44.1,31.4,28.2,86,80,54,29.99,29.73,12,2,19,0.00
2013-4-15,64.2,57.4,46.1,56.0,51.3,43.0,90,81,70,29.85,29.77,7,5,14,0.29
2013-4-16,45.8,45.8,45.8,27.7,27.7,27.7,49,49,49,30.15,30.15,5,5,5,0.00
2013-4-17,53.1,48.6,43.6,46.1,43.4,40.5,93,83,64,30.07,29.81,16,8,19,0.64
2013-4-18,69.3,57.1,43.9,64.5,54.5,41.2,97,91,82,29.81,29.36,17,8,28,1.79
2013-4-19,43.8,38.6,34.6,41.1,30.7,26.2,90,73,64,29.83,29.45,18,13,27,0.05
2013-4-20,38.6,34.5,28.8,28.5,19.0,13.3,77,54,36,30.44,29.84,20,9,25,0.00
2013-4-21,51.9,40.2,27.2,29.3,21.2,15.2,76,49,27,30.54,30.33,12,5,20,0.00
2013-4-22,64.7,51.6,36.6,34.4,29.9,25.6,74,47,23,30.33,30.04,9,4,18,0.00
2013-4-23,65.5,49.7,37.6,47.3,40.3,34.1,93,72,48,30.04,29.83,14,6,17,0.54
2013-4-24,45.4,39.7,35.9,35.8,29.1,16.1,92,68,33,30.10,29.83,15,8,21,0.09
2013-4-25,47.7,43.6,39.6,36.9,31.8,27.8,82,63,48,30.33,30.04,15,6,18,0.03
2013-4-26,65.3,51.3,34.7,41.3,34.0,27.3,75,53,36,30.35,30.23,14,6,18,0.00
2013-4-27,68.8,57.6,42.5,45.0,39.2,30.9,80,53,25,30.27,29.97,10,3,19,0.00
2013-4-28,59.6,53.2,46.7,51.3,47.3,44.3,92,81,59,29.97,29.79,8,3,11,0.02
2013-4-29,70.9,59.0,43.2,53.1,48.9,41.4,97,72,48,29.89,29.77,10,5,19,0.00
2013-4-30,82.2,70.1,57.5,59.7,55.0,50.3,82,60,39,29.92,29.78,14,9,20,0.22
2013-5-1,69.9,68.5,66.8,58.3,57.7,57.1,71,69,66,29.94,29.92,5,4,6,0.00